Sidney Richland Municipal Airport
KSDY : now visible

Airfield :











YOU CAN JOIN US ON...

 
LOGIN :

Register | Disclaimer

   EN    FR    IT 

 









Legend :    VFR   Marginal VFR   IFR   Intensive IFR   Very Intensive IFR
Visi :
Ceiling :
>= 8 km
>= 3000ft
5 to 8 km
1000 to 3000 ft
1500m to 5 km
500 to 1000 ft
800 to 1500m
200 to 500 ft
< 800m
< 200 ft
Symbols :   Thunderstorms  Fog  Heavy snow  Heavy precipitations  Wind > 20 kt






- Airport Elevation : 1985 ft


KSDY - Sidney Richland Municipal

CURRENT METAR :
  • 040156Z AUTO 10005KT 10SM CLR M03/M08 A3007 RMK AO2 SLP577 T10281083 FZRANO

EXPIRED METARs :
  • 040056Z AUTO 14010KT 10SM CLR 00/M09 A3007 RMK AO2 SLP580 T00001089 FZRANO
  • 032356Z AUTO 15012KT 10SM CLR 01/M09 A3009 RMK AO2 SLP583 T00061094 10017 21039 56022 FZRANO

TAF KSDY
Valid from the 04 at 00:00 until the 05 at 00:00 UTC


032325Z 0400/0424 15011KT P6SM SKC
FM041600 17009KT P6SM BKN080



MET'MAP, your aeronautical weather chart ! - Copyright ORBIFLY December 2007 - Disclaimer

ORBIFLY MET'MAP TEAM :

Programming & Development : Alexandra Zaïnal
Concept & original design : Baudouin d'Aumeries
Assistance for programming : Marc-Olivier Méhu
Technical & hardware support : Manuel Goepfert

Contact : metmap@orbifly.com




SOURCES & CREDITS :

   NOAA       Earth
Advisory